createdAt,value
2018-11-14T00:00:26.352Z,54.43
2018-11-14T00:01:26.346Z,54.02
2018-11-14T00:02:26.325Z,54.33
2018-11-14T00:03:26.329Z,54.33
2018-11-14T00:04:26.340Z,54.43
2018-11-14T00:05:26.293Z,54.53
2018-11-14T00:06:26.281Z,54.33
2018-11-14T00:07:26.319Z,54.43
2018-11-14T00:08:26.275Z,54.33
2018-11-14T00:09:26.257Z,54.63
2018-11-14T00:10:26.240Z,54.63
2018-11-14T00:11:26.225Z,54.33
2018-11-14T00:12:26.228Z,54.65
2018-11-14T00:13:26.263Z,54.43
2018-11-14T00:14:26.190Z,54.33
2018-11-14T00:15:26.178Z,54.22
2018-11-14T00:16:26.169Z,54.22
2018-11-14T00:17:26.165Z,54.33
2018-11-14T00:18:26.229Z,54.33
2018-11-14T00:19:26.167Z,54.13
2018-11-14T00:20:26.124Z,54.13
2018-11-14T00:21:26.111Z,54.33
2018-11-14T00:22:26.109Z,54.33
2018-11-14T00:23:26.105Z,54.13
2018-11-14T00:24:26.092Z,54.43
2018-11-14T00:25:26.074Z,54.33
2018-11-14T00:26:26.055Z,54.53
2018-11-14T00:27:26.042Z,54.33
2018-11-14T00:28:26.047Z,54.43
2018-11-14T00:29:26.079Z,54.33
2018-11-14T00:30:26.021Z,54.22
2018-11-14T00:31:25.997Z,54.33
2018-11-14T00:32:25.985Z,54.43
2018-11-14T00:33:26.032Z,54.93
2018-11-14T00:34:26.141Z,54.83
2018-11-14T00:35:25.954Z,54.43
2018-11-14T00:36:25.953Z,54.53
2018-11-14T00:37:25.931Z,54.72
2018-11-14T00:38:25.939Z,54.72
2018-11-14T00:39:25.907Z,54.53
2018-11-14T00:40:25.895Z,54.63
2018-11-14T00:41:25.885Z,55.03
2018-11-14T00:42:25.882Z,54.53
2018-11-14T00:43:25.866Z,54.63
2018-11-14T00:44:25.867Z,54.63
2018-11-14T00:45:25.839Z,53.92
2018-11-14T00:46:25.829Z,54.72
2018-11-14T00:47:25.821Z,54.72
2018-11-14T00:48:25.816Z,54.83
2018-11-14T00:49:25.809Z,54.72
2018-11-14T00:50:25.783Z,53.92
2018-11-14T00:51:25.771Z,53.82
2018-11-14T00:52:25.762Z,53.92
2018-11-14T00:53:25.751Z,54.43
2018-11-14T00:54:25.754Z,53.82
2018-11-14T00:55:25.734Z,53.92
2018-11-14T00:56:25.716Z,53.82
2018-11-14T00:57:25.709Z,54.02
2018-11-14T00:58:25.697Z,53.92
2018-11-14T00:59:25.695Z,53.92
2018-11-14T01:00:25.670Z,53.72
2018-11-14T01:01:25.712Z,54.02
2018-11-14T01:02:25.650Z,54.43
2018-11-14T01:03:25.639Z,53.72
2018-11-14T01:04:25.640Z,53.92
2018-11-14T01:05:25.616Z,54.43
2018-11-14T01:06:25.607Z,53.72
2018-11-14T01:07:25.601Z,53.92
2018-11-14T01:08:25.579Z,53.82
2018-11-14T01:09:25.586Z,53.82
2018-11-14T01:10:25.559Z,53.92
2018-11-14T01:11:25.550Z,53.92
2018-11-14T01:12:25.536Z,53.82
2018-11-14T01:13:25.535Z,53.82
2018-11-14T01:14:25.528Z,53.92
2018-11-14T01:15:25.506Z,53.72
2018-11-14T01:16:25.490Z,53.92
2018-11-14T01:17:25.781Z,53.72
2018-11-14T01:18:25.469Z,54.13
2018-11-14T01:19:25.481Z,54.02
2018-11-14T01:20:25.456Z,53.82
2018-11-14T01:21:25.436Z,53.82
2018-11-14T01:22:25.427Z,54.02
2018-11-14T01:23:25.411Z,53.82
2018-11-14T01:24:25.415Z,53.82
2018-11-14T01:25:25.400Z,53.92
2018-11-14T01:26:25.379Z,53.82
2018-11-14T01:27:25.368Z,53.82
2018-11-14T01:28:25.359Z,53.92
2018-11-14T01:29:25.364Z,53.82
2018-11-14T01:30:25.333Z,54.02
2018-11-14T01:31:25.332Z,54.13
2018-11-14T01:32:25.311Z,53.82
2018-11-14T01:33:25.301Z,53.92
2018-11-14T01:34:25.304Z,54.13
2018-11-14T01:35:25.279Z,53.72
2018-11-14T01:36:25.266Z,53.92
2018-11-14T01:37:25.266Z,53.92
2018-11-14T01:38:25.243Z,53.72
2018-11-14T01:39:25.253Z,53.92
2018-11-14T01:40:25.221Z,54.02
2018-11-14T01:41:25.240Z,54.02
2018-11-14T01:42:25.200Z,54.02
2018-11-14T01:43:25.195Z,54.02
2018-11-14T01:44:25.208Z,53.82
2018-11-14T01:45:25.165Z,54.02
2018-11-14T01:46:25.155Z,54.02
2018-11-14T01:47:25.141Z,54.02
2018-11-14T01:48:25.131Z,54.02
2018-11-14T01:49:25.145Z,54.02
2018-11-14T01:50:25.109Z,54.02
2018-11-14T01:51:25.096Z,54.05
2018-11-14T01:52:25.085Z,54.02
2018-11-14T01:53:25.075Z,53.92
2018-11-14T01:54:25.097Z,54.02
2018-11-14T01:55:25.066Z,53.82
2018-11-14T01:56:25.050Z,53.62
2018-11-14T01:57:25.031Z,53.62
2018-11-14T01:58:25.018Z,53.92
2018-11-14T01:59:25.008Z,53.72
2018-11-14T02:00:25.013Z,53.82
2018-11-14T02:01:24.999Z,53.92
2018-11-14T02:02:24.976Z,53.95
2018-11-14T02:03:24.964Z,54.02
2018-11-14T02:04:24.952Z,53.72
2018-11-14T02:05:24.959Z,53.72
2018-11-14T02:06:24.932Z,53.92
2018-11-14T02:07:24.932Z,53.72
2018-11-14T02:08:24.909Z,53.92
2018-11-14T02:09:24.896Z,53.92
2018-11-14T02:10:24.900Z,54.02
2018-11-14T02:11:24.878Z,53.82
2018-11-14T02:12:24.863Z,54.02
2018-11-14T02:13:24.861Z,53.82
2018-11-14T02:14:24.849Z,53.82
2018-11-14T02:15:24.844Z,53.82
2018-11-14T02:16:24.821Z,53.95
2018-11-14T02:17:24.810Z,54.02
2018-11-14T02:18:24.798Z,54.02
2018-11-14T02:19:24.795Z,54.02
2018-11-14T02:20:24.788Z,53.92
2018-11-14T02:21:24.767Z,54.05
2018-11-14T02:22:24.754Z,53.95
2018-11-14T02:23:24.746Z,53.92
2018-11-14T02:24:24.730Z,54.02
2018-11-14T02:25:24.743Z,53.92
2018-11-14T02:26:24.708Z,53.92
2018-11-14T02:27:24.696Z,53.92
2018-11-14T02:28:24.688Z,53.92
2018-11-14T02:29:24.677Z,54.05
2018-11-14T02:30:24.679Z,53.95
2018-11-14T02:31:24.669Z,54.02
2018-11-14T02:32:24.640Z,53.92
2018-11-14T02:33:24.634Z,54.02
2018-11-14T02:34:24.617Z,53.72
2018-11-14T02:35:24.704Z,54.13
2018-11-14T02:36:24.596Z,54.13
2018-11-14T02:37:24.701Z,54.13
2018-11-14T02:38:24.573Z,53.72
2018-11-14T02:39:24.561Z,53.82
2018-11-14T02:40:24.566Z,53.82
2018-11-14T02:41:24.548Z,54.13
2018-11-14T02:42:24.527Z,54.05
2018-11-14T02:43:24.532Z,53.92
2018-11-14T02:44:24.504Z,54.13
2018-11-14T02:45:24.529Z,54.13
2018-11-14T02:46:24.489Z,53.62
2018-11-14T02:47:24.472Z,54.15
2018-11-14T02:48:24.460Z,54.13
2018-11-14T02:49:24.463Z,54.15
2018-11-14T02:50:24.456Z,54.13
2018-11-14T02:51:24.427Z,53.62
2018-11-14T02:52:24.424Z,53.72
2018-11-14T02:53:24.405Z,53.65
2018-11-14T02:54:24.393Z,53.72
2018-11-14T02:55:24.424Z,54.13
2018-11-14T02:56:24.372Z,53.72
2018-11-14T02:57:24.359Z,53.72
2018-11-14T02:58:24.348Z,53.62
2018-11-14T02:59:24.337Z,54.05
2018-11-14T03:00:24.327Z,53.92
2018-11-14T03:01:24.351Z,53.65
2018-11-14T03:02:24.304Z,53.92
2018-11-14T03:03:24.291Z,53.72
2018-11-14T03:04:24.283Z,54.15
2018-11-14T03:05:24.301Z,53.52
2018-11-14T03:06:24.276Z,54.13
2018-11-14T03:07:24.259Z,53.52
2018-11-14T03:08:24.238Z,54.02
2018-11-14T03:09:24.224Z,54.13
2018-11-14T03:10:24.219Z,54.02
2018-11-14T03:11:24.218Z,53.42
2018-11-14T03:12:24.274Z,54.13
2018-11-14T03:13:24.189Z,53.92
2018-11-14T03:14:24.169Z,53.32
2018-11-14T03:15:24.157Z,53.82
2018-11-14T03:16:24.162Z,53.62
2018-11-14T03:17:24.136Z,54.02
2018-11-14T03:18:24.125Z,53.34
2018-11-14T03:19:24.125Z,53.42
2018-11-14T03:20:24.102Z,54.02
2018-11-14T03:21:24.107Z,53.32
2018-11-14T03:22:24.079Z,53.62
2018-11-14T03:23:24.069Z,53.62
2018-11-14T03:24:24.057Z,53.62
2018-11-14T03:25:24.060Z,53.82
2018-11-14T03:26:24.048Z,53.82
2018-11-14T03:27:24.026Z,53.92
2018-11-14T03:28:24.012Z,53.82
2018-11-14T03:29:24.001Z,53.95
2018-11-14T03:30:23.988Z,53.82
2018-11-14T03:31:24.000Z,53.85
2018-11-14T03:32:23.965Z,53.92
2018-11-14T03:33:23.954Z,53.85
2018-11-14T03:34:23.944Z,53.82
2018-11-14T03:35:23.932Z,53.85
2018-11-14T03:36:23.942Z,53.92
2018-11-14T03:37:23.921Z,53.92
2018-11-14T03:38:23.901Z,53.72
2018-11-14T03:39:23.887Z,53.72
2018-11-14T03:40:23.876Z,53.72
2018-11-14T03:41:23.880Z,53.82
2018-11-14T03:42:23.853Z,53.75
2018-11-14T03:43:23.850Z,53.72
2018-11-14T03:44:23.830Z,53.82
2018-11-14T03:45:23.818Z,53.72
2018-11-14T03:46:23.822Z,53.55
2018-11-14T03:47:23.800Z,53.72
2018-11-14T03:48:23.783Z,53.75
2018-11-14T03:49:23.785Z,53.72
2018-11-14T03:50:23.762Z,53.75
2018-11-14T03:51:23.767Z,53.92
2018-11-14T03:52:23.742Z,53.55
2018-11-14T03:53:23.730Z,53.52
2018-11-14T03:54:23.717Z,53.52
2018-11-14T03:55:23.722Z,53.34
2018-11-14T03:56:23.711Z,53.62
2018-11-14T03:57:23.682Z,53.42
2018-11-14T03:58:23.734Z,53.42
2018-11-14T03:59:23.664Z,53.32
2018-11-14T04:00:23.649Z,53.82
2018-11-14T04:01:23.666Z,53.45
2018-11-14T04:02:23.628Z,53.34
2018-11-14T04:03:23.618Z,53.55
2018-11-14T04:04:23.604Z,53.34
2018-11-14T04:05:23.636Z,53.85
2018-11-14T04:06:23.584Z,53.52
2018-11-14T04:07:23.592Z,53.95
2018-11-14T04:08:23.557Z,53.55
2018-11-14T04:09:23.559Z,53.34
2018-11-14T04:10:23.538Z,53.34
2018-11-14T04:11:23.526Z,53.14
2018-11-14T04:12:23.547Z,53.32
2018-11-14T04:13:23.517Z,53.25
2018-11-14T04:14:23.491Z,53.34
2018-11-14T04:15:23.480Z,53.05
2018-11-14T04:16:23.470Z,52.74
2018-11-14T04:17:23.472Z,53.25
2018-11-14T04:18:23.448Z,53.34
2018-11-14T04:19:23.455Z,53.14
2018-11-14T04:20:23.423Z,53.45
2018-11-14T04:21:23.415Z,53.05
2018-11-14T04:22:23.418Z,52.74
2018-11-14T04:23:23.389Z,53.14
2018-11-14T04:24:23.380Z,53.25
2018-11-14T04:25:23.384Z,53.34
2018-11-14T04:26:23.358Z,52.74
2018-11-14T04:27:23.363Z,52.55
2018-11-14T04:28:23.333Z,52.74
2018-11-14T04:29:23.323Z,52.64
2018-11-14T04:30:23.312Z,53.34
2018-11-14T04:31:23.311Z,52.74
2018-11-14T04:32:23.312Z,52.64
2018-11-14T04:33:23.275Z,52.74
2018-11-14T04:34:23.266Z,54.35
2018-11-14T04:35:23.255Z,56.16
2018-11-14T04:36:23.245Z,55.76
2018-11-14T04:37:23.276Z,55.35
2018-11-14T04:38:23.221Z,54.35
2018-11-14T04:39:23.210Z,54.75
2018-11-14T04:40:23.198Z,54.45
2018-11-14T04:41:23.187Z,54.22
2018-11-14T04:42:23.193Z,54.53
2018-11-14T04:43:23.173Z,54.43
2018-11-14T04:44:23.153Z,53.72
2018-11-14T04:45:23.142Z,54.13
2018-11-14T04:46:23.209Z,53.82
2018-11-14T04:47:23.135Z,54.02
2018-11-14T04:48:23.108Z,54.13
2018-11-14T04:49:23.110Z,53.62
2018-11-14T04:50:23.092Z,53.39
2018-11-14T04:51:23.073Z,53.32
2018-11-14T04:52:23.079Z,53.20
2018-11-14T04:53:23.057Z,52.72
2018-11-14T04:54:23.044Z,52.72
2018-11-14T04:55:23.037Z,53.02
2018-11-14T04:56:23.016Z,52.92
2018-11-14T04:57:23.019Z,53.00
2018-11-14T04:58:22.996Z,52.69
2018-11-14T04:59:22.985Z,52.59
2018-11-14T05:00:22.979Z,52.29
2018-11-14T05:01:22.965Z,52.19
2018-11-14T05:02:23.013Z,52.19
2018-11-14T05:03:22.938Z,52.39
2018-11-14T05:04:22.927Z,52.39
2018-11-14T05:05:22.923Z,52.39
2018-11-14T05:06:22.905Z,52.29
2018-11-14T05:07:22.918Z,52.39
2018-11-14T05:08:22.883Z,52.39
2018-11-14T05:09:22.873Z,52.89
2018-11-14T05:10:22.863Z,52.62
2018-11-14T05:11:22.848Z,52.49
2018-11-14T05:12:22.852Z,52.29
2018-11-14T05:13:22.833Z,52.59
2018-11-14T05:14:22.816Z,52.49
2018-11-14T05:15:22.805Z,52.69
2018-11-14T05:16:22.794Z,52.49
2018-11-14T05:17:22.798Z,52.39
2018-11-14T05:18:22.772Z,52.39
2018-11-14T05:19:22.771Z,52.59
2018-11-14T05:20:22.749Z,52.49
2018-11-14T05:21:22.736Z,52.49
2018-11-14T05:22:22.759Z,52.59
2018-11-14T05:23:22.716Z,52.39
2018-11-14T05:24:22.732Z,52.19
2018-11-14T05:25:22.703Z,52.39
2018-11-14T05:26:22.682Z,52.29
2018-11-14T05:27:22.671Z,52.09
2018-11-14T05:28:22.676Z,52.59
2018-11-14T05:29:22.649Z,52.49
2018-11-14T05:30:22.639Z,52.59
2018-11-14T05:31:22.633Z,52.59
2018-11-14T05:32:22.618Z,51.99
2018-11-14T05:33:22.619Z,51.79
2018-11-14T05:34:22.593Z,52.39
2018-11-14T05:35:22.585Z,52.19
2018-11-14T05:36:22.573Z,52.19
2018-11-14T05:37:22.574Z,52.42
2018-11-14T05:38:22.565Z,51.92
2018-11-14T05:39:22.576Z,52.12
2018-11-14T05:40:22.528Z,52.32
2018-11-14T05:41:22.514Z,52.14
2018-11-14T05:42:22.503Z,51.84
2018-11-14T05:43:22.518Z,51.94
2018-11-14T05:44:22.482Z,51.74
2018-11-14T05:45:22.590Z,52.14
2018-11-14T05:46:22.460Z,51.84
2018-11-14T05:47:22.449Z,51.54
2018-11-14T05:48:22.453Z,51.74
2018-11-14T05:49:22.435Z,52.04
2018-11-14T05:50:22.419Z,51.84
2018-11-14T05:51:22.408Z,52.37
2018-11-14T05:52:22.392Z,52.37
2018-11-14T05:53:22.397Z,52.26
2018-11-14T05:54:22.375Z,51.66
2018-11-14T05:55:22.370Z,51.97
2018-11-14T05:56:22.349Z,51.97
2018-11-14T05:57:22.337Z,51.86
2018-11-14T05:58:22.339Z,51.76
2018-11-14T05:59:22.312Z,51.86
2018-11-14T06:00:22.306Z,51.76
2018-11-14T06:01:22.303Z,51.86
2018-11-14T06:02:22.280Z,51.66
2018-11-14T06:03:22.282Z,51.66
2018-11-14T06:04:22.257Z,51.66
2018-11-14T06:05:22.245Z,51.76
2018-11-14T06:06:22.234Z,51.46
2018-11-14T06:07:22.394Z,51.16
2018-11-14T06:08:22.227Z,51.86
2018-11-14T06:09:22.201Z,51.16
2018-11-14T06:10:22.187Z,51.36
2018-11-14T06:11:22.177Z,51.26
2018-11-14T06:12:22.168Z,51.46
2018-11-14T06:13:22.183Z,51.36
2018-11-14T06:14:22.143Z,51.26
2018-11-14T06:15:22.299Z,51.26
2018-11-14T06:16:22.124Z,51.56
2018-11-14T06:17:22.110Z,51.46
2018-11-14T06:18:22.116Z,51.46
2018-11-14T06:19:22.098Z,51.66
2018-11-14T06:20:22.076Z,51.64
2018-11-14T06:21:22.065Z,51.66
2018-11-14T06:22:22.053Z,51.76
2018-11-14T06:23:22.090Z,51.74
2018-11-14T06:24:22.030Z,51.56
2018-11-14T06:25:22.031Z,51.64
2018-11-14T06:26:22.009Z,51.54
2018-11-14T06:27:21.999Z,51.14
2018-11-14T06:28:22.020Z,51.64
2018-11-14T06:29:22.025Z,51.34
2018-11-14T06:30:21.965Z,51.44
2018-11-14T06:31:21.951Z,51.04
2018-11-14T06:32:21.952Z,51.24
2018-11-14T06:33:21.933Z,51.34
2018-11-14T06:34:21.933Z,51.34
2018-11-14T06:35:21.917Z,51.54
2018-11-14T06:36:21.896Z,51.24
2018-11-14T06:37:21.885Z,51.24
2018-11-14T06:38:21.885Z,50.93
2018-11-14T06:39:21.877Z,51.74
2018-11-14T06:40:21.853Z,51.44
2018-11-14T06:41:21.841Z,51.54
2018-11-14T06:42:21.831Z,51.44
2018-11-14T06:43:21.818Z,51.54
2018-11-14T06:44:21.830Z,51.64
2018-11-14T06:45:21.797Z,51.74
2018-11-14T06:46:21.783Z,51.34
2018-11-14T06:47:21.773Z,51.84
2018-11-14T06:48:21.762Z,51.64
2018-11-14T06:49:21.767Z,51.64
2018-11-14T06:50:21.750Z,51.66
2018-11-14T06:51:21.728Z,51.94
2018-11-14T06:52:21.717Z,51.74
2018-11-14T06:53:21.708Z,51.94
2018-11-14T06:54:21.709Z,51.64
2018-11-14T06:55:21.684Z,51.54
2018-11-14T06:56:21.687Z,51.84
2018-11-14T06:57:21.664Z,51.94
2018-11-14T06:58:21.651Z,51.74
2018-11-14T06:59:21.868Z,51.97
2018-11-14T07:00:21.628Z,52.14
2018-11-14T07:01:21.617Z,52.14
2018-11-14T07:02:27.318Z,51.94
2018-11-14T07:03:21.626Z,52.26
2018-11-14T07:04:21.597Z,51.97
2018-11-14T07:05:21.634Z,52.26
2018-11-14T07:06:21.559Z,52.34
2018-11-14T07:07:21.549Z,52.26
2018-11-14T07:08:21.550Z,52.37
2018-11-14T07:09:21.538Z,52.26
2018-11-14T07:10:21.515Z,52.44
2018-11-14T07:11:21.504Z,51.94
2018-11-14T07:12:21.492Z,52.06
2018-11-14T07:13:21.493Z,52.14
2018-11-14T07:14:21.496Z,52.34
2018-11-14T07:15:21.472Z,52.24
2018-11-14T07:16:21.449Z,52.14
2018-11-14T07:17:21.436Z,52.34
2018-11-14T07:18:21.423Z,51.74
2018-11-14T07:19:21.427Z,52.04
2018-11-14T07:20:21.409Z,52.24
2018-11-14T07:21:21.390Z,52.14
2018-11-14T07:22:21.380Z,52.34
2018-11-14T07:23:21.367Z,52.14
2018-11-14T07:24:21.406Z,52.04
2018-11-14T07:25:21.350Z,52.34
2018-11-14T07:26:21.343Z,52.24
2018-11-14T07:27:21.324Z,52.04
2018-11-14T07:28:21.337Z,52.14
2018-11-14T07:29:21.339Z,52.04
2018-11-14T07:30:21.290Z,51.94
2018-11-14T07:31:21.278Z,52.14
2018-11-14T07:32:21.276Z,52.64
2018-11-14T07:33:21.255Z,52.34
2018-11-14T07:34:21.249Z,52.55
2018-11-14T07:35:21.251Z,52.44
2018-11-14T07:36:21.226Z,52.34
2018-11-14T07:37:21.220Z,52.55
2018-11-14T07:38:21.210Z,52.34
2018-11-14T07:39:21.189Z,52.55
2018-11-14T07:40:21.195Z,52.55
2018-11-14T07:41:21.165Z,52.24
2018-11-14T07:42:21.155Z,52.72
2018-11-14T07:43:21.152Z,52.22
2018-11-14T07:44:21.145Z,52.62
2018-11-14T07:45:21.125Z,52.62
2018-11-14T07:46:21.130Z,52.55
2018-11-14T07:47:21.100Z,52.42
2018-11-14T07:48:21.090Z,52.42
2018-11-14T07:49:21.078Z,52.55
2018-11-14T07:50:21.080Z,52.32
2018-11-14T07:51:21.105Z,52.62
2018-11-14T07:52:21.047Z,52.62
2018-11-14T07:53:21.047Z,52.62
2018-11-14T07:54:21.050Z,52.62
2018-11-14T07:55:21.027Z,52.62
2018-11-14T07:56:21.009Z,52.51
2018-11-14T07:57:20.989Z,52.12
2018-11-14T07:58:20.981Z,52.22
2018-11-14T07:59:20.966Z,52.51
2018-11-14T08:00:20.969Z,52.51
2018-11-14T08:01:20.945Z,52.22
2018-11-14T08:02:21.063Z,52.42
2018-11-14T08:03:20.922Z,52.62
2018-11-14T08:04:20.914Z,52.42
2018-11-14T08:05:20.919Z,52.62
2018-11-14T08:06:20.888Z,52.62
2018-11-14T08:07:20.878Z,52.72
2018-11-14T08:08:21.017Z,52.62
2018-11-14T08:09:20.857Z,52.32
2018-11-14T08:10:20.859Z,52.32
2018-11-14T08:11:20.832Z,52.32
2018-11-14T08:12:20.824Z,51.61
2018-11-14T08:13:20.814Z,51.81
2018-11-14T08:14:20.814Z,51.72
2018-11-14T08:15:20.804Z,51.59
2018-11-14T08:16:20.778Z,51.81
2018-11-14T08:17:20.766Z,51.72
2018-11-14T08:18:20.755Z,51.92
2018-11-14T08:19:20.742Z,51.61
2018-11-14T08:20:20.757Z,51.51
2018-11-14T08:21:20.722Z,51.72
2018-11-14T08:22:20.715Z,51.61
2018-11-14T08:23:20.702Z,51.51
2018-11-14T08:24:20.693Z,51.69
2018-11-14T08:25:20.692Z,51.49
2018-11-14T08:26:20.695Z,51.59
2018-11-14T08:27:20.653Z,51.39
2018-11-14T08:28:20.644Z,51.49
2018-11-14T08:29:20.633Z,51.49
2018-11-14T08:30:20.655Z,51.39
2018-11-14T08:31:20.610Z,51.59
2018-11-14T08:32:20.610Z,51.09
2018-11-14T08:33:20.588Z,51.09
2018-11-14T08:34:20.575Z,51.29
2018-11-14T08:35:20.581Z,51.69
2018-11-14T08:36:20.554Z,51.59
2018-11-14T08:37:20.545Z,51.59
2018-11-14T08:38:20.537Z,51.76
2018-11-14T08:39:20.584Z,51.46
2018-11-14T08:40:20.539Z,52.19
2018-11-14T08:41:20.499Z,52.29
2018-11-14T08:42:20.488Z,53.27
2018-11-14T08:43:20.478Z,53.00
2018-11-14T08:44:20.471Z,53.09
2018-11-14T08:45:20.453Z,53.90
2018-11-14T08:46:20.459Z,54.20
2018-11-14T08:47:20.431Z,54.80
2018-11-14T08:48:20.421Z,54.17
2018-11-14T08:49:20.422Z,54.47
2018-11-14T08:50:20.548Z,55.98
2018-11-14T08:51:20.403Z,55.98
2018-11-14T08:52:20.374Z,56.38
2018-11-14T08:53:20.363Z,56.48
2018-11-14T08:54:20.356Z,56.48
2018-11-14T08:55:20.341Z,55.78
2018-11-14T08:56:20.369Z,55.38
2018-11-14T08:57:20.319Z,55.60
2018-11-14T08:58:20.307Z,55.98
2018-11-14T08:59:20.297Z,56.28
2018-11-14T09:00:20.294Z,56.28
2018-11-14T09:01:20.297Z,55.98
2018-11-14T09:02:20.269Z,55.38
2018-11-14T09:03:20.252Z,55.80
2018-11-14T09:04:20.242Z,55.08
2018-11-14T09:05:20.231Z,54.47
2018-11-14T09:06:20.262Z,54.27
2018-11-14T09:07:20.208Z,54.88
2018-11-14T09:08:20.209Z,53.97
2018-11-14T09:09:20.186Z,53.97
2018-11-14T09:10:20.177Z,54.10
2018-11-14T09:11:20.311Z,54.10
2018-11-14T09:12:20.230Z,54.47
2018-11-14T09:13:20.141Z,53.97
2018-11-14T09:14:20.204Z,53.80
2018-11-14T09:15:20.118Z,53.90
2018-11-14T09:16:20.124Z,53.70
2018-11-14T09:17:20.098Z,53.37
2018-11-14T09:18:20.171Z,52.80
2018-11-14T09:19:20.073Z,52.59
2018-11-14T09:20:20.063Z,52.57
2018-11-14T09:21:20.082Z,52.67
2018-11-14T09:22:20.050Z,52.29
2018-11-14T09:23:20.029Z,52.26
2018-11-14T09:24:20.017Z,52.29
2018-11-14T09:25:20.006Z,52.17
2018-11-14T09:26:20.013Z,52.37
2018-11-14T09:27:19.994Z,52.37
2018-11-14T09:28:19.974Z,52.29
2018-11-14T09:29:19.963Z,52.29
2018-11-14T09:30:19.951Z,52.57
2018-11-14T09:31:19.956Z,52.57
2018-11-14T09:32:19.928Z,52.47
2018-11-14T09:33:19.928Z,52.26
2018-11-14T09:34:19.906Z,52.47
2018-11-14T09:35:19.894Z,52.47
2018-11-14T09:36:19.900Z,52.47
2018-11-14T09:37:19.873Z,52.37
2018-11-14T09:38:19.861Z,52.26
2018-11-14T09:39:19.866Z,52.26
2018-11-14T09:40:19.839Z,51.76
2018-11-14T09:41:19.916Z,51.76
2018-11-14T09:42:19.819Z,52.26
2018-11-14T09:43:19.807Z,52.07
2018-11-14T09:44:19.829Z,52.26
2018-11-14T09:45:19.794Z,52.47
2018-11-14T09:46:19.798Z,52.67
2018-11-14T09:47:19.817Z,52.47
2018-11-14T09:48:19.749Z,52.26
2018-11-14T09:49:19.845Z,52.37
2018-11-14T09:50:19.728Z,52.67
2018-11-14T09:51:19.756Z,52.67
2018-11-14T09:52:19.711Z,52.67
2018-11-14T09:53:19.807Z,52.26
2018-11-14T09:54:19.683Z,52.57
2018-11-14T09:55:19.672Z,52.57
2018-11-14T09:56:19.661Z,52.07
2018-11-14T09:57:19.680Z,51.76
2018-11-14T09:58:19.639Z,51.17
2018-11-14T09:59:19.627Z,51.17
2018-11-14T10:00:19.616Z,50.36
2018-11-14T10:01:19.605Z,50.66
2018-11-14T10:02:19.608Z,50.16
2018-11-14T10:03:19.592Z,49.96
2018-11-14T10:04:19.575Z,50.06
2018-11-14T10:05:19.562Z,50.16
2018-11-14T10:06:19.550Z,50.16
2018-11-14T10:07:19.556Z,50.66
2018-11-14T10:08:19.527Z,49.96
2018-11-14T10:09:19.525Z,50.26
2018-11-14T10:10:19.504Z,50.46
2018-11-14T10:11:19.495Z,49.76
2018-11-14T10:12:19.548Z,49.76
2018-11-14T10:13:19.471Z,49.76
2018-11-14T10:14:19.462Z,50.36
2018-11-14T10:15:19.462Z,49.66
2018-11-14T10:16:19.438Z,50.36
2018-11-14T10:17:19.444Z,49.86
2018-11-14T10:18:19.436Z,50.06
2018-11-14T10:19:19.404Z,50.44
2018-11-14T10:20:19.394Z,50.34
2018-11-14T10:21:19.458Z,50.24
2018-11-14T10:22:19.398Z,49.74
2018-11-14T10:23:19.365Z,49.84
2018-11-14T10:24:19.350Z,50.13
2018-11-14T10:25:19.337Z,49.54
2018-11-14T10:26:19.326Z,49.74
2018-11-14T10:27:19.332Z,49.74
2018-11-14T10:28:19.303Z,49.63
2018-11-14T10:29:19.298Z,49.93
2018-11-14T10:30:19.325Z,49.84
2018-11-14T10:31:19.286Z,49.93
2018-11-14T10:32:19.273Z,50.11
2018-11-14T10:33:19.249Z,49.31
2018-11-14T10:34:19.237Z,49.41
2018-11-14T10:35:19.226Z,49.71
2018-11-14T10:36:19.226Z,49.41
2018-11-14T10:37:19.220Z,49.71
2018-11-14T10:38:19.193Z,49.58
2018-11-14T10:39:19.184Z,48.99
2018-11-14T10:40:19.171Z,49.08
2018-11-14T10:41:19.159Z,48.79
2018-11-14T10:42:19.173Z,48.57
2018-11-14T10:43:19.137Z,48.76
2018-11-14T10:44:19.125Z,48.46
2018-11-14T10:45:19.114Z,48.57
2018-11-14T10:46:19.105Z,48.44
2018-11-14T10:47:19.108Z,48.54
2018-11-14T10:48:19.091Z,48.94
2018-11-14T10:49:19.070Z,48.24
2018-11-14T10:50:19.059Z,48.24
2018-11-14T10:51:19.050Z,47.54
2018-11-14T10:52:19.072Z,47.31
2018-11-14T10:53:19.028Z,47.31
2018-11-14T10:54:19.038Z,47.31
2018-11-14T10:55:19.007Z,47.39
2018-11-14T10:56:18.994Z,47.30
2018-11-14T10:57:18.985Z,47.79
2018-11-14T10:58:19.053Z,47.19
2018-11-14T10:59:18.964Z,47.39
2018-11-14T11:00:18.960Z,46.57
2018-11-14T11:01:18.940Z,46.80
2018-11-14T11:02:18.931Z,46.77
2018-11-14T11:03:18.936Z,46.97
2018-11-14T11:04:18.910Z,47.07
2018-11-14T11:05:18.901Z,46.35
2018-11-14T11:06:18.895Z,46.75
2018-11-14T11:07:18.881Z,46.35
2018-11-14T11:08:18.994Z,46.65
2018-11-14T11:09:18.856Z,46.43
2018-11-14T11:10:18.845Z,45.83
2018-11-14T11:11:18.834Z,45.73
2018-11-14T11:12:18.830Z,45.51
2018-11-14T11:13:18.830Z,45.61
2018-11-14T11:14:18.799Z,45.71
2018-11-14T11:15:18.790Z,45.61
2018-11-14T11:16:18.777Z,45.09
2018-11-14T11:17:18.766Z,45.09
2018-11-14T11:18:18.780Z,45.29
2018-11-14T11:19:18.747Z,44.99
2018-11-14T11:20:18.734Z,45.36
2018-11-14T11:21:18.726Z,44.87
2018-11-14T11:22:18.711Z,44.57
2018-11-14T11:23:18.718Z,44.24
2018-11-14T11:24:18.691Z,43.75
2018-11-14T11:25:18.692Z,44.15
2018-11-14T11:26:18.667Z,43.75
2018-11-14T11:27:18.655Z,44.15
2018-11-14T11:28:18.667Z,43.93
2018-11-14T11:29:18.633Z,44.12
2018-11-14T11:30:18.629Z,43.52
2018-11-14T11:31:18.611Z,43.80
2018-11-14T11:32:18.611Z,44.20
2018-11-14T11:33:18.591Z,43.71
2018-11-14T11:34:18.594Z,43.51
2018-11-14T11:35:18.566Z,43.19
2018-11-14T11:36:18.556Z,42.91
2018-11-14T11:37:18.545Z,42.99
2018-11-14T11:38:18.615Z,42.97
2018-11-14T11:39:18.535Z,42.07
2018-11-14T11:40:18.510Z,42.47
2018-11-14T11:41:18.500Z,42.67
2018-11-14T11:42:18.489Z,42.15
2018-11-14T11:43:18.475Z,42.15
2018-11-14T11:44:18.534Z,41.95
2018-11-14T11:45:18.453Z,41.74
2018-11-14T11:46:18.440Z,41.83
2018-11-14T11:47:18.430Z,40.92
2018-11-14T11:48:18.419Z,41.52
2018-11-14T11:49:18.423Z,41.09
2018-11-14T11:50:18.412Z,41.09
2018-11-14T11:51:18.391Z,40.88
2018-11-14T11:52:18.371Z,40.48
2018-11-14T11:53:18.364Z,39.79
2018-11-14T11:54:18.364Z,39.47
2018-11-14T11:55:18.343Z,40.17
2018-11-14T11:56:18.329Z,38.36
2018-11-14T11:57:18.327Z,38.85
2018-11-14T11:58:18.304Z,39.04
2018-11-14T11:59:18.313Z,38.24
2018-11-14T12:00:18.418Z,38.23
2018-11-14T12:01:18.270Z,38.62
2018-11-14T12:02:18.317Z,38.80
2018-11-14T12:03:18.260Z,38.51
2018-11-14T12:04:18.254Z,37.79
2018-11-14T12:05:18.227Z,38.29
2018-11-14T12:06:18.401Z,37.79
2018-11-14T12:07:18.206Z,37.48
2018-11-14T12:08:18.197Z,37.48
2018-11-14T12:09:18.200Z,37.36
2018-11-14T12:10:18.183Z,36.47
2018-11-14T12:11:18.161Z,36.87
2018-11-14T12:12:18.151Z,36.87
2018-11-14T12:13:18.161Z,36.85
2018-11-14T12:14:18.144Z,36.36
2018-11-14T12:15:18.117Z,36.55
2018-11-14T12:16:18.115Z,36.14
2018-11-14T12:17:18.097Z,36.34
2018-11-14T12:18:18.083Z,35.64
2018-11-14T12:19:18.143Z,35.93
2018-11-14T12:20:18.059Z,35.24
2018-11-14T12:21:18.050Z,35.53
2018-11-14T12:22:18.051Z,35.83
2018-11-14T12:23:18.028Z,35.73
2018-11-14T12:24:18.037Z,35.73
2018-11-14T12:25:18.010Z,35.93
2018-11-14T12:26:17.996Z,35.73
2018-11-14T12:27:18.091Z,35.63
2018-11-14T12:28:17.986Z,35.63
2018-11-14T12:29:17.978Z,35.93
2018-11-14T12:30:18.044Z,35.53
2018-11-14T12:31:18.093Z,36.25
2018-11-14T12:32:17.931Z,36.57
2018-11-14T12:33:17.922Z,37.79
2018-11-14T12:34:17.935Z,38.62
2018-11-14T12:35:18.058Z,39.45
2018-11-14T12:36:17.889Z,40.07
2018-11-14T12:37:17.880Z,38.98
2018-11-14T12:38:17.871Z,39.47
2018-11-14T12:39:17.872Z,39.55
2018-11-14T12:40:17.862Z,38.94
2018-11-14T12:41:17.838Z,38.51
2018-11-14T12:42:17.828Z,38.39
2018-11-14T12:43:17.817Z,37.68
2018-11-14T12:44:17.820Z,37.26
2018-11-14T12:45:17.845Z,36.57
2018-11-14T12:46:17.796Z,36.46
2018-11-14T12:47:17.772Z,36.46
2018-11-14T12:48:17.763Z,36.65
2018-11-14T12:49:17.767Z,37.84
2018-11-14T12:50:17.750Z,37.54
2018-11-14T12:51:17.728Z,37.77
2018-11-14T12:52:17.726Z,38.88